Surface/Precipitation History
11/21/2014 07:16  to  11/22/2014 07:16
Change End Date:
Date/Time
(MST)
Sf
Temp Chem Water Layer Surface Precipitation
Sf Sub Frz Factor Pct Depth IcePct Cond Salin Type Intens Accum Rate
11/22/2014 07:11 Ice Watch 31.6F 32F - 95 - - - 5 mhos 547 None None - -
11/22/2014 07:08 Ice Watch 31.5F 32F - 95 - - - 7 mhos 719 None None - -
11/22/2014 06:58 Ice Watch 31.3F 32F - 95 - - - 10 mhos 1093 None None - -
11/22/2014 06:48 Ice Watch 31.6F 32F - 95 - - - 7 mhos 715 None None - -
11/22/2014 06:41 Ice Watch 31.8F 32F - 95 - - - 6 mhos 606 None None - -
11/22/2014 06:38 Ice Watch 31.8F 32F - 95 - - - 6 mhos 611 None None - -
11/22/2014 06:28 Ice Watch 31.8F 32F - 95 - - - 4 mhos 435 None None - -
11/22/2014 06:18 Ice Watch 32.0F 32F - 95 - - - 2 mhos 177 None None - -
11/22/2014 06:14 Ice Watch 32.0F 32F - 95 - - - 0 mhos 43 None None - -
11/22/2014 06:08 Ice Watch 32.0F 32F - 95 - - - 0 mhos 27 None None - -
11/22/2014 05:58 Ice Watch 32.0F 32F - 95 - - - 0 mhos 19 None None - -
11/22/2014 05:48 Ice Watch 32.0F 32F - 95 - - - 0 mhos 20 None None - -
11/22/2014 05:41 Ice Watch 32.0F 32F - 95 - - - 0 mhos 16 None None - -
11/22/2014 05:37 Ice Watch 32.0F 32F - 95 - - - 0 mhos 15 None None - -
11/22/2014 05:27 Frost 32.0F 32F - - - - - 0 mhos 15 None None - -
Date/Time
(MST)
Sf
Temp Chem Water Layer Surface Precipitation
Sf Sub Frz Factor Pct Depth IcePct Cond Salin Type Intens Accum Rate
11/22/2014 05:17 Frost 32.0F 32F - - - - - 0 mhos 15 None None - -
11/22/2014 05:12 Frost 32.0F 32F - - - - - 0 mhos 15 None None - -
11/22/2014 05:07 Frost 32.0F 32F - - - - - 0 mhos 15 None None - -
11/22/2014 04:57 Frost 32.0F 32F - - - - - 0 mhos 15 None None - -
11/22/2014 04:47 Frost 32.0F 32F - - - - - 0 mhos 14 None None - -
11/22/2014 04:41 Frost 32.0F 32F - - - - - 0 mhos 13 None None - -
11/22/2014 04:37 Frost 32.0F 32F - - - - - 0 mhos 12 None None - -
11/22/2014 04:27 Frost 32.0F 32F - - - - - 0 mhos 4 None None - -
11/22/2014 04:17 Ice Watch 31.8F 33F - 50 - - - 0 mhos 17 None None - -
11/22/2014 04:11 Trace Moisture 33.3F 33F - 95 - - - 0 mhos 35 None None - -
11/22/2014 04:07 Trace Moisture 33.4F 33F - 95 - - - 0 mhos 36 None None - -
11/22/2014 03:57 Trace Moisture 34.2F 33F - 65 - - - 0 mhos 21 None None - -
11/22/2014 03:47 Trace Moisture 33.8F 33F - 70 - - - 0 mhos 26 None None - -
11/22/2014 03:41 Trace Moisture 33.6F 33F - 75 - - - 0 mhos 33 None None - -
11/22/2014 03:37 Trace Moisture 33.6F 33F - 75 - - - 0 mhos 34 None None - -
Date/Time
(MST)
Sf
Temp Chem Water Layer Surface Precipitation
Sf Sub Frz Factor Pct Depth IcePct Cond Salin Type Intens Accum Rate
11/22/2014 03:27 Trace Moisture 34.0F 33F - 60 - - - 0 mhos 22 None None - -
11/22/2014 03:17 Trace Moisture 33.8F 32F - 60 - - - 0 mhos 22 None None - -
11/22/2014 03:11 Trace Moisture 33.6F 32F - 65 - - - 0 mhos 22 None None - -
11/22/2014 03:07 Trace Moisture 33.4F 32F - 60 - - - 0 mhos 22 None None - -
11/22/2014 02:57 Trace Moisture 33.4F 32F - 60 - - - 0 mhos 21 None None - -
11/22/2014 02:47 Trace Moisture 33.4F 32F - 60 - - - 0 mhos 21 None None - -
11/22/2014 02:41 Trace Moisture 33.4F 32F - 65 - - - 0 mhos 21 None None - -
11/22/2014 02:37 Trace Moisture 33.3F 32F - 65 - - - 0 mhos 21 None None - -
11/22/2014 02:26 Trace Moisture 33.1F 32F - 65 - - - 0 mhos 22 None None - -
11/22/2014 02:16 Trace Moisture 33.1F 32F - 70 - - - 0 mhos 22 None None - -
11/22/2014 02:15 Trace Moisture 33.1F 32F - 70 - - - 0 mhos 22 None None - -
11/22/2014 02:06 Trace Moisture 33.1F 32F - 75 - - - 0 mhos 22 None None - -
11/22/2014 01:56 Trace Moisture 33.3F 32F - 75 - - - 0 mhos 21 None None - -
11/22/2014 01:46 Trace Moisture 33.1F 32F - 85 - - - 0 mhos 22 None None - -
11/22/2014 01:41 Trace Moisture 33.1F 32F - 90 - - - 0 mhos 23 None None - -
Date/Time
(MST)
Sf
Temp Chem Water Layer Surface Precipitation
Sf Sub Frz Factor Pct Depth IcePct Cond Salin Type Intens Accum Rate
11/22/2014 01:36 Trace Moisture 32.9F 32F - 95 - - - 0 mhos 24 None None - -
11/22/2014 01:26 Trace Moisture 32.5F 32F - 95 - - - 0 mhos 26 None None - -
11/22/2014 01:16 Trace Moisture 32.5F 32F - 95 - - - 0 mhos 26 None None - -
11/22/2014 01:11 Trace Moisture 32.5F 32F - 95 - - - 0 mhos 26 None None - -
11/22/2014 01:06 Trace Moisture 32.5F 33F - 95 - - - 0 mhos 26 None None - -
11/22/2014 00:56 Trace Moisture 32.7F 33F - 95 - - - 0 mhos 26 None None - -
11/22/2014 00:46 Trace Moisture 32.7F 33F - 95 - - - 0 mhos 29 None None - -
11/22/2014 00:41 Trace Moisture 32.9F 33F - 95 - - - 0 mhos 30 None None - -
11/22/2014 00:36 Trace Moisture 33.1F 33F - 95 - - - 0 mhos 31 None None - -
11/22/2014 00:26 Trace Moisture 33.6F 33F - 95 - - - 0 mhos 28 None None - -
11/22/2014 00:16 Trace Moisture 34.0F 33F - 95 - - - 0 mhos 25 None None - -
11/22/2014 00:12 Trace Moisture 33.8F 33F - 95 - - - 0 mhos 25 None None - -
11/22/2014 00:07 Trace Moisture 33.8F 33F - 95 - - - 0 mhos 26 None None - -
11/22/2014 00:06 Trace Moisture 33.8F 33F - 95 - - - 0 mhos 26 None None - -
11/21/2014 23:56 Trace Moisture 33.8F 33F - 85 - - - 0 mhos 30 None None - -
Date/Time
(MST)
Sf
Temp Chem Water Layer Surface Precipitation
Sf Sub Frz Factor Pct Depth IcePct Cond Salin Type Intens Accum Rate
11/21/2014 23:46 Trace Moisture 34.3F 33F - 75 - - - 0 mhos 24 None None - -
11/21/2014 23:41 Trace Moisture 34.5F 33F - 70 - - - 0 mhos 23 None None - -
11/21/2014 23:36 Trace Moisture 34.5F 33F - 60 - - - 0 mhos 20 None None - -
11/21/2014 23:26 Trace Moisture 34.5F 33F - 45 - - - 0 mhos 17 None None - -
11/21/2014 23:16 Trace Moisture 34.5F 33F - 40 - - - 0 mhos 17 None None - -
11/21/2014 23:11 Trace Moisture 34.5F 33F - 40 - - - 0 mhos 17 None None - -
11/21/2014 23:05 Trace Moisture 34.5F 33F - 40 - - - 0 mhos 17 None None - -
11/21/2014 22:55 Trace Moisture 34.3F 33F - 45 - - - 0 mhos 17 None None - -
11/21/2014 22:45 Trace Moisture 34.3F 33F - 45 - - - 0 mhos 17 None None - -
11/21/2014 22:41 Trace Moisture 34.3F 33F - 45 - - - 0 mhos 18 None None - -
11/21/2014 22:35 Trace Moisture 34.3F 33F - 45 - - - 0 mhos 18 None None - -
11/21/2014 22:25 Trace Moisture 34.2F 33F - 45 - - - 0 mhos 18 None None - -
11/21/2014 22:15 Trace Moisture 33.8F 33F - 45 - - - 0 mhos 19 None None - -
11/21/2014 22:05 Trace Moisture 33.8F 33F - 45 - - - 0 mhos 19 None None - -
11/21/2014 21:55 Trace Moisture 33.6F 32F - 45 - - - 0 mhos 19 None None - -
Date/Time
(MST)
Sf
Temp Chem Water Layer Surface Precipitation
Sf Sub Frz Factor Pct Depth IcePct Cond Salin Type Intens Accum Rate
11/21/2014 21:45 Trace Moisture 33.4F 32F - 50 - - - 0 mhos 19 None None - -
11/21/2014 21:42 Trace Moisture 33.4F 32F - 45 - - - 0 mhos 19 None None - -
11/21/2014 21:35 Trace Moisture 33.4F 32F - 50 - - - 0 mhos 19 None None - -
11/21/2014 21:25 Trace Moisture 33.4F 32F - 50 - - - 0 mhos 20 None None - -
11/21/2014 21:20 Trace Moisture 33.3F 32F - 50 - - - 0 mhos 20 None None - -
11/21/2014 21:15 Trace Moisture 33.1F 32F - 55 - - - 0 mhos 21 None None - -
11/21/2014 21:05 Trace Moisture 32.9F 32F - 55 - - - 0 mhos 21 None None - -
11/21/2014 20:55 Trace Moisture 32.5F 32F - 60 - - - 0 mhos 23 None None - -
11/21/2014 20:45 Trace Moisture 32.4F 32F - 60 - - - 0 mhos 23 None None - -
11/21/2014 20:45 Trace Moisture 32.4F 32F - 60 - - - 0 mhos 23 None None - -
11/21/2014 20:35 Trace Moisture 32.2F 32F - 60 - - - 0 mhos 24 None None - -
11/21/2014 20:25 Ice Watch 31.8F 32F - 65 - - - 0 mhos 24 None None - -
11/21/2014 20:20 Ice Watch 31.8F 32F - 65 - - - 0 mhos 24 None None - -
11/21/2014 20:15 Ice Watch 31.8F 32F - 60 - - - 0 mhos 24 None None - -
11/21/2014 20:05 Ice Watch 31.8F 32F - 60 - - - 0 mhos 24 None None - -
Date/Time
(MST)
Sf
Temp Chem Water Layer Surface Precipitation
Sf Sub Frz Factor Pct Depth IcePct Cond Salin Type Intens Accum Rate
11/21/2014 19:55 Ice Watch 31.6F 32F - 60 - - - 0 mhos 24 None None - -
11/21/2014 19:45 Ice Watch 31.8F 32F - 60 - - - 0 mhos 22 None None - -
11/21/2014 19:43 Ice Watch 31.8F 32F - 60 - - - 0 mhos 22 None None - -
11/21/2014 19:34 Ice Watch 32.0F 32F - 55 - - - 0 mhos 21 None None - -
11/21/2014 19:24 Trace Moisture 32.2F 32F - 55 - - - 0 mhos 21 None None - -
11/21/2014 19:20 Trace Moisture 32.2F 32F - 55 - - - 0 mhos 20 None None - -
11/21/2014 19:14 Trace Moisture 32.2F 32F - 55 - - - 0 mhos 20 None None - -
11/21/2014 19:04 Trace Moisture 32.2F 32F - 50 - - - 0 mhos 19 None None - -
11/21/2014 18:54 Ice Watch 32.0F 33F - 50 - - - 0 mhos 19 None None - -
11/21/2014 18:44 Trace Moisture 32.2F 33F - 50 - - - 0 mhos 15 None None - -
11/21/2014 18:41 Trace Moisture 32.2F 33F - 45 - - - 0 mhos 13 None None - -
11/21/2014 18:34 Trace Moisture 32.4F 33F - 45 - - - 0 mhos 9 None None - -
11/21/2014 18:24 Trace Moisture 32.5F 33F - 45 - - - 0 mhos 5 None None - -
11/21/2014 18:14 Trace Moisture 32.9F 34F - 40 - - - 0 mhos 3 None None - -
11/21/2014 18:11 Trace Moisture 32.9F 34F - 40 - - - 0 mhos 2 None None - -
Date/Time
(MST)
Sf
Temp Chem Water Layer Surface Precipitation
Sf Sub Frz Factor Pct Depth IcePct Cond Salin Type Intens Accum Rate
11/21/2014 18:04 Trace Moisture 33.1F 34F - 25 - - - 0 mhos 2 None None - -
11/21/2014 17:54 Trace Moisture 33.4F 34F - 25 - - - 0 mhos 2 None None - -
11/21/2014 17:44 Trace Moisture 33.6F 35F - 20 - - - 0 mhos 1 None None - -
11/21/2014 17:41 Trace Moisture 33.8F 35F - 20 - - - 0 mhos 1 None None - -
11/21/2014 17:34 Trace Moisture 34.3F 35F - 15 - - - 0 mhos 1 None None - -
11/21/2014 17:24 Trace Moisture 34.5F 36F - 10 - - - 0 mhos 1 None None - -
11/21/2014 17:14 Trace Moisture 35.1F 36F - 15 - - - 0 mhos 2 None None - -
11/21/2014 17:11 Trace Moisture 35.2F 36F - 15 - - - 0 mhos 2 None None - -
11/21/2014 17:04 Trace Moisture 35.8F 36F - 25 - - - 0 mhos 0 None None - -
11/21/2014 16:54 Trace Moisture 36.7F 37F - 40 - - - 0 mhos 0 None None - -
11/21/2014 16:44 Trace Moisture 37.4F 37F - 50 - - - 0 mhos 0 None None - -
11/21/2014 16:41 Trace Moisture 37.4F 37F - 45 - - - 0 mhos 0 None None - -
11/21/2014 16:34 Trace Moisture 37.8F 38F - 50 - - - 0 mhos 0 None None - -
11/21/2014 16:24 Trace Moisture 38.1F 38F - 55 - - - 0 mhos 0 None None - -
11/21/2014 16:13 Trace Moisture 38.8F 38F - 5 - - - 0 mhos 0 None None - -
Date/Time
(MST)
Sf
Temp Chem Water Layer Surface Precipitation
Sf Sub Frz Factor Pct Depth IcePct Cond Salin Type Intens Accum Rate
11/21/2014 16:11 Trace Moisture 38.8F 38F - 5 - - - 0 mhos 0 None None - -
11/21/2014 16:03 Trace Moisture 39.4F 39F - 5 - - - 0 mhos 0 None None - -
11/21/2014 15:53 Trace Moisture 40.3F 39F - 5 - - - 0 mhos 0 None None - -
11/21/2014 15:43 Trace Moisture 41.4F 39F - 5 - - - 0 mhos 0 None None - -
11/21/2014 15:41 Trace Moisture 41.9F 39F - 5 - - - 0 mhos 0 None None - -
11/21/2014 15:33 Trace Moisture 41.4F 40F - 5 - - - 0 mhos 0 None None - -
11/21/2014 15:23 Trace Moisture 42.1F 40F - 5 - - - 0 mhos 0 None None - -
11/21/2014 15:13 Trace Moisture 42.1F 40F - 5 - - - 0 mhos 0 None None - -
11/21/2014 15:10 Trace Moisture 42.1F 41F - 5 - - - 0 mhos 0 None None - -
11/21/2014 15:03 Trace Moisture 41.9F 41F - 5 - - - 0 mhos 0 None None - -
11/21/2014 14:53 Trace Moisture 43.2F 42F - 5 - - - 0 mhos 0 None None - -
11/21/2014 14:43 Dry 47.1F 42F - - - - - 0 mhos 0 None None - -
11/21/2014 14:40 Dry 47.3F 42F - - - - - 0 mhos 0 None None - -
11/21/2014 14:33 Dry 47.5F 42F - - - - - 0 mhos 0 None None - -
11/21/2014 14:23 Dry 47.8F 42F - - - - - 0 mhos 0 None None - -
Date/Time
(MST)
Sf
Temp Chem Water Layer Surface Precipitation
Sf Sub Frz Factor Pct Depth IcePct Cond Salin Type Intens Accum Rate
11/21/2014 14:13 Dry 47.7F 42F - - - - - 0 mhos 0 None None - -
11/21/2014 14:10 Dry 47.5F 42F - - - - - 0 mhos 0 None None - -
11/21/2014 14:03 Dry 46.4F 42F - - - - - 0 mhos 0 None None - -
11/21/2014 13:53 Dry 47.1F 43F - - - - - 0 mhos 0 None None - -
11/21/2014 13:43 Dry 52.2F 42F - - - - - 0 mhos 0 None None - -
11/21/2014 13:38 Dry 51.6F 42F - - - - - 0 mhos 0 None None - -
11/21/2014 13:33 Dry 51.4F 42F - - - - - 0 mhos 0 None None - -
11/21/2014 13:23 Dry 52.3F 41F - - - - - 0 mhos 0 None None - -
11/21/2014 13:13 Dry 50.9F 40F - - - - - 0 mhos 0 None None - -
11/21/2014 13:10 Dry 50.4F 40F - - - - - 0 mhos 0 None None - -
11/21/2014 13:03 Dry 49.6F 39F - - - - - 0 mhos 0 None None - -
11/21/2014 12:52 Dry 49.6F 38F - - - - - 0 mhos 0 None None - -
11/21/2014 12:42 Dry 48.4F 37F - - - - - 0 mhos 0 None None - -
11/21/2014 12:40 Dry 48.0F 37F - - - - - 0 mhos 0 None None - -
11/21/2014 12:32 Dry 47.1F 36F - - - - - 0 mhos 0 None None - -
Date/Time
(MST)
Sf
Temp Chem Water Layer Surface Precipitation
Sf Sub Frz Factor Pct Depth IcePct Cond Salin Type Intens Accum Rate
11/21/2014 12:22 Dry 45.7F 35F - - - - - 0 mhos 0 None None - -
11/21/2014 12:12 Dry 44.4F 34F - - - - - 0 mhos 0 None None - -
11/21/2014 12:10 Dry 43.7F 34F - - - - - 0 mhos 0 None None - -
11/21/2014 12:02 Trace Moisture 39.7F 33F - 5 - - - 0 mhos 0 None None - -
11/21/2014 11:52 Trace Moisture 42.3F 33F - 5 - - - 0 mhos 0 None None - -
11/21/2014 11:42 Trace Moisture 39.4F 32F - 5 - - - 0 mhos 1 None None - -
11/21/2014 11:40 Trace Moisture 38.3F 32F - 5 - - - 0 mhos 1 None None - -
11/21/2014 11:32 Trace Moisture 37.9F 32F - 5 - - - 0 mhos 1 None None - -
11/21/2014 11:22 Trace Moisture 38.8F 32F - 5 - - - 0 mhos 1 None None - -
11/21/2014 11:12 Trace Moisture 38.8F 31F - 5 - - - 0 mhos 1 None None - -
11/21/2014 11:10 Trace Moisture 38.5F 31F - 15 - - - 0 mhos 2 None None - -
11/21/2014 11:02 Trace Moisture 37.6F 31F - 5 - - - 0 mhos 5 None None - -
11/21/2014 10:52 Trace Moisture 36.3F 31F - 5 - - - 0 mhos 12 None None - -
11/21/2014 10:42 Trace Moisture 34.0F 31F - 15 - - - 0 mhos 20 None None - -
11/21/2014 10:41 Trace Moisture 33.8F 31F - 15 - - - 0 mhos 19 None None - -
Date/Time
(MST)
Sf
Temp Chem Water Layer Surface Precipitation
Sf Sub Frz Factor Pct Depth IcePct Cond Salin Type Intens Accum Rate
11/21/2014 10:32 Trace Moisture 33.1F 30F - 30 - - - 0 mhos 18 None None - -
11/21/2014 10:22 Trace Moisture 32.7F 30F - 40 - - - 0 mhos 18 None None - -
11/21/2014 10:12 Trace Moisture 32.2F 30F - 50 - - - 0 mhos 19 None None - -
11/21/2014 10:05 Ice Watch 31.8F 30F - 55 - - - 0 mhos 20 None None - -
11/21/2014 10:02 Ice Watch 31.5F 30F - 55 - - - 0 mhos 21 None None - -
11/21/2014 09:51 Ice Watch 31.1F 29F - 60 - - - 0 mhos 21 None None - -
11/21/2014 09:41 Ice Watch 30.9F 29F - 55 - - - 0 mhos 21 None None - -
11/21/2014 09:40 Ice Watch 30.7F 29F - 55 - - - 0 mhos 21 None None - -
11/21/2014 09:31 Ice Watch 30.2F 29F - 60 - - - 0 mhos 22 None None - -
11/21/2014 09:21 Ice Watch 30.0F 29F - 60 - - - 0 mhos 22 None None - -
11/21/2014 09:11 Ice Watch 29.8F 28F - 60 - - - 0 mhos 23 None None - -
11/21/2014 09:11 Ice Watch 29.8F 28F - 60 - - - 0 mhos 23 None None - -
11/21/2014 09:01 Ice Watch 29.5F 28F - 60 - - - 0 mhos 24 None None - -
11/21/2014 08:51 Ice Watch 28.9F 28F - 70 - - - 0 mhos 26 None None - -
11/21/2014 08:41 Ice Watch 28.0F 27F - 75 - - - 0 mhos 30 None None - -
Date/Time
(MST)
Sf
Temp Chem Water Layer Surface Precipitation
Sf Sub Frz Factor Pct Depth IcePct Cond Salin Type Intens Accum Rate
11/21/2014 08:34 Ice Watch 27.3F 27F - 80 - - - 0 mhos 33 None None - -
11/21/2014 08:31 Ice Watch 27.3F 27F - 80 - - - 0 mhos 33 None None - -
11/21/2014 08:21 Ice Watch 26.4F 27F - 85 - - - 0 mhos 37 None None - -
11/21/2014 08:11 Ice Watch 26.4F 27F - 85 - - - 0 mhos 39 None None - -
11/21/2014 08:11 Ice Watch 26.4F 27F - 85 - - - 0 mhos 39 None None - -
11/21/2014 08:01 Ice Watch 26.1F 27F - 90 - - - 0 mhos 40 None None - -
11/21/2014 07:51 Ice Watch 25.7F 27F - 90 - - - 0 mhos 42 None None - -
11/21/2014 07:41 Ice Watch 25.5F 26F - 90 - - - 0 mhos 43 None None - -
11/21/2014 07:40 Ice Watch 25.5F 26F - 90 - - - 0 mhos 43 None None - -
11/21/2014 07:31 Ice Watch 25.3F 26F - 90 - - - 0 mhos 44 None None - -
11/21/2014 07:21 Ice Watch 25.2F 26F - 90 - - - 0 mhos 46 None None - -
Change End Date:
Copyright © 1998-2005 Surface Systems, Inc.
All Rights Reserved
Send comments about the data to:
SCAN Web ® is a registered trademark of Surface Systems, Inc.
SCAN Web Version 5.6